sensor_id;sensor_type;location;lat;lon;timestamp;temperature;humidity
54684;DHT22;40582;53.100;6.686;2023-05-10T00:01:38;14.00;99.90
54684;DHT22;40582;53.100;6.686;2023-05-10T00:04:03;14.00;99.90
54684;DHT22;40582;53.100;6.686;2023-05-10T00:06:29;13.90;99.90
54684;DHT22;40582;53.100;6.686;2023-05-10T00:08:55;13.90;99.90
54684;DHT22;40582;53.100;6.686;2023-05-10T00:11:21;13.90;99.90
54684;DHT22;40582;53.100;6.686;2023-05-10T00:13:47;13.80;99.90
54684;DHT22;40582;53.100;6.686;2023-05-10T00:16:13;13.80;99.90
54684;DHT22;40582;53.100;6.686;2023-05-10T00:18:39;13.80;99.90
54684;DHT22;40582;53.100;6.686;2023-05-10T00:21:05;13.70;99.90
54684;DHT22;40582;53.100;6.686;2023-05-10T00:23:31;13.70;99.90
54684;DHT22;40582;53.100;6.686;2023-05-10T00:25:57;13.70;99.90
54684;DHT22;40582;53.100;6.686;2023-05-10T00:28:23;13.70;99.90
54684;DHT22;40582;53.100;6.686;2023-05-10T00:30:48;13.70;99.90
54684;DHT22;40582;53.100;6.686;2023-05-10T00:33:14;13.70;99.90
54684;DHT22;40582;53.100;6.686;2023-05-10T00:35:40;13.70;99.90
54684;DHT22;40582;53.100;6.686;2023-05-10T00:38:06;13.70;99.90
54684;DHT22;40582;53.100;6.686;2023-05-10T00:40:32;13.70;99.90
54684;DHT22;40582;53.100;6.686;2023-05-10T00:42:58;13.70;99.90
54684;DHT22;40582;53.100;6.686;2023-05-10T00:45:26;13.70;99.90
54684;DHT22;40582;53.100;6.686;2023-05-10T00:47:52;13.70;99.90
54684;DHT22;40582;53.100;6.686;2023-05-10T00:50:21;13.80;99.90
54684;DHT22;40582;53.100;6.686;2023-05-10T00:52:47;13.80;99.90
54684;DHT22;40582;53.100;6.686;2023-05-10T00:55:13;13.80;99.90
54684;DHT22;40582;53.100;6.686;2023-05-10T00:57:39;13.80;99.90
54684;DHT22;40582;53.100;6.686;2023-05-10T01:00:05;13.80;99.90
54684;DHT22;40582;53.100;6.686;2023-05-10T01:02:32;13.80;99.90
54684;DHT22;40582;53.100;6.686;2023-05-10T01:04:59;13.80;99.90
54684;DHT22;40582;53.100;6.686;2023-05-10T01:07:25;13.80;99.90
54684;DHT22;40582;53.100;6.686;2023-05-10T01:09:51;13.80;99.90
54684;DHT22;40582;53.100;6.686;2023-05-10T01:12:16;13.80;99.90
54684;DHT22;40582;53.100;6.686;2023-05-10T01:14:42;13.80;99.90
54684;DHT22;40582;53.100;6.686;2023-05-10T01:17:09;13.80;99.90
54684;DHT22;40582;53.100;6.686;2023-05-10T01:19:36;13.80;99.90
54684;DHT22;40582;53.100;6.686;2023-05-10T01:28:16;13.80;99.90
54684;DHT22;40582;53.100;6.686;2023-05-10T01:33:59;13.80;99.90
54684;DHT22;40582;53.100;6.686;2023-05-10T01:42:20;13.80;99.90
54684;DHT22;40582;53.100;6.686;2023-05-10T01:44:58;13.70;99.90
54684;DHT22;40582;53.100;6.686;2023-05-10T01:47:50;13.70;99.90
54684;DHT22;40582;53.100;6.686;2023-05-10T01:50:23;13.70;99.90
54684;DHT22;40582;53.100;6.686;2023-05-10T01:52:55;13.70;99.90
54684;DHT22;40582;53.100;6.686;2023-05-10T01:55:26;13.70;99.90
54684;DHT22;40582;53.100;6.686;2023-05-10T01:58:03;13.70;99.90
54684;DHT22;40582;53.100;6.686;2023-05-10T02:00:30;13.70;99.90
54684;DHT22;40582;53.100;6.686;2023-05-10T02:02:57;13.60;99.90
54684;DHT22;40582;53.100;6.686;2023-05-10T02:05:24;13.60;99.90
54684;DHT22;40582;53.100;6.686;2023-05-10T02:07:50;13.60;99.90
54684;DHT22;40582;53.100;6.686;2023-05-10T02:10:17;13.50;99.90
54684;DHT22;40582;53.100;6.686;2023-05-10T02:12:45;13.50;99.90
54684;DHT22;40582;53.100;6.686;2023-05-10T02:15:17;13.50;99.90
54684;DHT22;40582;53.100;6.686;2023-05-10T02:17:43;13.50;99.90
54684;DHT22;40582;53.100;6.686;2023-05-10T02:20:10;13.40;99.90
54684;DHT22;40582;53.100;6.686;2023-05-10T02:22:36;13.40;99.90
54684;DHT22;40582;53.100;6.686;2023-05-10T02:25:04;13.30;99.90
54684;DHT22;40582;53.100;6.686;2023-05-10T02:27:31;13.30;99.90
54684;DHT22;40582;53.100;6.686;2023-05-10T02:29:58;13.30;99.90
54684;DHT22;40582;53.100;6.686;2023-05-10T02:32:25;13.30;99.90
54684;DHT22;40582;53.100;6.686;2023-05-10T02:34:52;13.30;99.90
54684;DHT22;40582;53.100;6.686;2023-05-10T02:37:20;13.30;99.90
54684;DHT22;40582;53.100;6.686;2023-05-10T02:39:50;13.30;99.90
54684;DHT22;40582;53.100;6.686;2023-05-10T02:42:18;13.40;99.90
54684;DHT22;40582;53.100;6.686;2023-05-10T02:44:50;13.30;99.90
54684;DHT22;40582;53.100;6.686;2023-05-10T02:47:17;13.30;99.90
54684;DHT22;40582;53.100;6.686;2023-05-10T02:49:43;13.30;99.90
54684;DHT22;40582;53.100;6.686;2023-05-10T02:52:09;13.30;99.90
54684;DHT22;40582;53.100;6.686;2023-05-10T02:54:43;13.30;99.90
54684;DHT22;40582;53.100;6.686;2023-05-10T02:57:13;13.30;99.90
54684;DHT22;40582;53.100;6.686;2023-05-10T02:59:40;13.20;99.90
54684;DHT22;40582;53.100;6.686;2023-05-10T03:02:08;13.20;99.90
54684;DHT22;40582;53.100;6.686;2023-05-10T03:04:35;13.20;99.90
54684;DHT22;40582;53.100;6.686;2023-05-10T03:07:01;13.30;99.90
54684;DHT22;40582;53.100;6.686;2023-05-10T03:09:26;13.20;99.90
54684;DHT22;40582;53.100;6.686;2023-05-10T03:14:48;13.30;99.90
54684;DHT22;40582;53.100;6.686;2023-05-10T03:17:25;13.30;99.90
54684;DHT22;40582;53.100;6.686;2023-05-10T03:20:02;13.30;99.90
54684;DHT22;40582;53.100;6.686;2023-05-10T03:22:32;13.30;99.90
54684;DHT22;40582;53.100;6.686;2023-05-10T03:25:01;13.20;99.90
54684;DHT22;40582;53.100;6.686;2023-05-10T03:27:28;13.20;99.90
54684;DHT22;40582;53.100;6.686;2023-05-10T03:29:55;13.30;99.90
54684;DHT22;40582;53.100;6.686;2023-05-10T03:32:22;13.20;99.90
54684;DHT22;40582;53.100;6.686;2023-05-10T03:34:48;13.20;99.90
54684;DHT22;40582;53.100;6.686;2023-05-10T03:37:14;13.20;99.90
54684;DHT22;40582;53.100;6.686;2023-05-10T03:39:39;13.20;99.90
54684;DHT22;40582;53.100;6.686;2023-05-10T03:42:05;13.20;99.90
54684;DHT22;40582;53.100;6.686;2023-05-10T03:44:31;13.20;99.90
54684;DHT22;40582;53.100;6.686;2023-05-10T03:46:58;13.20;99.90
54684;DHT22;40582;53.100;6.686;2023-05-10T03:49:24;13.20;99.90
54684;DHT22;40582;53.100;6.686;2023-05-10T03:51:50;13.20;99.90
54684;DHT22;40582;53.100;6.686;2023-05-10T03:54:16;13.30;99.90
54684;DHT22;40582;53.100;6.686;2023-05-10T03:56:41;13.30;99.90
54684;DHT22;40582;53.100;6.686;2023-05-10T03:59:07;13.20;99.90
54684;DHT22;40582;53.100;6.686;2023-05-10T04:01:34;13.20;99.90
54684;DHT22;40582;53.100;6.686;2023-05-10T04:04:00;13.20;99.90
54684;DHT22;40582;53.100;6.686;2023-05-10T04:06:25;13.20;99.90
54684;DHT22;40582;53.100;6.686;2023-05-10T04:08:51;13.20;99.90
54684;DHT22;40582;53.100;6.686;2023-05-10T04:11:17;13.30;99.90
54684;DHT22;40582;53.100;6.686;2023-05-10T04:13:42;13.20;99.90
54684;DHT22;40582;53.100;6.686;2023-05-10T04:16:08;13.20;99.90
54684;DHT22;40582;53.100;6.686;2023-05-10T04:18:34;13.20;99.90
54684;DHT22;40582;53.100;6.686;2023-05-10T04:21:00;13.20;99.90
54684;DHT22;40582;53.100;6.686;2023-05-10T04:23:27;13.20;99.90
54684;DHT22;40582;53.100;6.686;2023-05-10T04:25:58;13.20;99.90
54684;DHT22;40582;53.100;6.686;2023-05-10T04:28:24;13.20;99.90
54684;DHT22;40582;53.100;6.686;2023-05-10T04:30:49;13.20;99.90
54684;DHT22;40582;53.100;6.686;2023-05-10T04:33:15;13.20;99.90
54684;DHT22;40582;53.100;6.686;2023-05-10T04:35:41;13.20;99.90
54684;DHT22;40582;53.100;6.686;2023-05-10T04:38:06;13.20;99.90
54684;DHT22;40582;53.100;6.686;2023-05-10T04:40:32;13.20;99.90
54684;DHT22;40582;53.100;6.686;2023-05-10T04:42:58;13.10;99.90
54684;DHT22;40582;53.100;6.686;2023-05-10T04:45:24;13.20;99.90
54684;DHT22;40582;53.100;6.686;2023-05-10T04:47:49;13.10;99.90
54684;DHT22;40582;53.100;6.686;2023-05-10T04:50:15;13.20;99.90
54684;DHT22;40582;53.100;6.686;2023-05-10T04:52:41;13.10;99.90
54684;DHT22;40582;53.100;6.686;2023-05-10T04:55:07;13.10;99.90
54684;DHT22;40582;53.100;6.686;2023-05-10T04:57:34;13.10;99.90
54684;DHT22;40582;53.100;6.686;2023-05-10T05:00:00;13.10;99.90
54684;DHT22;40582;53.100;6.686;2023-05-10T05:02:26;13.10;99.90
54684;DHT22;40582;53.100;6.686;2023-05-10T05:04:52;13.20;99.90
54684;DHT22;40582;53.100;6.686;2023-05-10T05:07:17;13.10;99.90
54684;DHT22;40582;53.100;6.686;2023-05-10T05:09:43;13.10;99.90
54684;DHT22;40582;53.100;6.686;2023-05-10T05:12:08;13.10;99.90
54684;DHT22;40582;53.100;6.686;2023-05-10T05:14:39;13.00;99.90
54684;DHT22;40582;53.100;6.686;2023-05-10T05:17:06;13.00;99.90
54684;DHT22;40582;53.100;6.686;2023-05-10T05:19:32;13.00;99.90
54684;DHT22;40582;53.100;6.686;2023-05-10T05:21:58;13.00;99.90
54684;DHT22;40582;53.100;6.686;2023-05-10T05:24:24;13.00;99.90
54684;DHT22;40582;53.100;6.686;2023-05-10T05:26:49;13.00;99.90
54684;DHT22;40582;53.100;6.686;2023-05-10T05:29:15;13.10;99.90
54684;DHT22;40582;53.100;6.686;2023-05-10T05:31:41;13.10;99.90
54684;DHT22;40582;53.100;6.686;2023-05-10T05:34:06;13.10;99.90
54684;DHT22;40582;53.100;6.686;2023-05-10T05:36:35;13.10;99.90
54684;DHT22;40582;53.100;6.686;2023-05-10T05:39:01;13.10;99.90
54684;DHT22;40582;53.100;6.686;2023-05-10T05:41:27;13.10;99.90
54684;DHT22;40582;53.100;6.686;2023-05-10T05:43:52;13.10;99.90
54684;DHT22;40582;53.100;6.686;2023-05-10T05:46:18;13.10;99.90
54684;DHT22;40582;53.100;6.686;2023-05-10T05:48:43;13.10;99.90
54684;DHT22;40582;53.100;6.686;2023-05-10T05:51:09;13.10;99.90
54684;DHT22;40582;53.100;6.686;2023-05-10T05:53:35;13.10;99.90
54684;DHT22;40582;53.100;6.686;2023-05-10T05:56:01;13.10;99.90
54684;DHT22;40582;53.100;6.686;2023-05-10T05:58:27;13.10;99.90
54684;DHT22;40582;53.100;6.686;2023-05-10T06:00:53;13.10;99.90
54684;DHT22;40582;53.100;6.686;2023-05-10T06:03:19;13.10;99.90
54684;DHT22;40582;53.100;6.686;2023-05-10T06:05:45;13.10;99.90
54684;DHT22;40582;53.100;6.686;2023-05-10T06:08:11;13.10;99.90
54684;DHT22;40582;53.100;6.686;2023-05-10T06:10:37;13.10;99.90
54684;DHT22;40582;53.100;6.686;2023-05-10T06:13:03;13.10;99.90
54684;DHT22;40582;53.100;6.686;2023-05-10T06:15:28;13.10;99.90
54684;DHT22;40582;53.100;6.686;2023-05-10T06:17:55;13.00;99.90
54684;DHT22;40582;53.100;6.686;2023-05-10T06:20:20;13.10;99.90
54684;DHT22;40582;53.100;6.686;2023-05-10T06:22:46;13.10;99.90
54684;DHT22;40582;53.100;6.686;2023-05-10T06:25:12;13.10;99.90
54684;DHT22;40582;53.100;6.686;2023-05-10T06:27:39;13.10;99.90
54684;DHT22;40582;53.100;6.686;2023-05-10T06:30:05;13.10;99.90
54684;DHT22;40582;53.100;6.686;2023-05-10T06:32:31;13.20;99.90
54684;DHT22;40582;53.100;6.686;2023-05-10T06:34:57;13.20;99.90
54684;DHT22;40582;53.100;6.686;2023-05-10T06:37:22;13.20;99.90
54684;DHT22;40582;53.100;6.686;2023-05-10T06:39:48;13.20;99.90
54684;DHT22;40582;53.100;6.686;2023-05-10T06:42:14;13.20;99.90
54684;DHT22;40582;53.100;6.686;2023-05-10T06:44:39;13.20;99.90
54684;DHT22;40582;53.100;6.686;2023-05-10T06:47:05;13.20;99.90
54684;DHT22;40582;53.100;6.686;2023-05-10T06:49:31;13.20;99.90
54684;DHT22;40582;53.100;6.686;2023-05-10T06:51:56;13.20;99.90
54684;DHT22;40582;53.100;6.686;2023-05-10T06:54:22;13.20;99.90
54684;DHT22;40582;53.100;6.686;2023-05-10T06:56:48;13.30;99.90
54684;DHT22;40582;53.100;6.686;2023-05-10T06:59:14;13.30;99.90
54684;DHT22;40582;53.100;6.686;2023-05-10T07:01:42;13.20;99.90
54684;DHT22;40582;53.100;6.686;2023-05-10T07:04:07;13.20;99.90
54684;DHT22;40582;53.100;6.686;2023-05-10T07:06:33;13.20;99.90
54684;DHT22;40582;53.100;6.686;2023-05-10T07:09:00;13.20;99.90
54684;DHT22;40582;53.100;6.686;2023-05-10T07:11:26;13.30;99.90
54684;DHT22;40582;53.100;6.686;2023-05-10T07:13:52;13.30;99.90
54684;DHT22;40582;53.100;6.686;2023-05-10T07:16:18;13.30;99.90
54684;DHT22;40582;53.100;6.686;2023-05-10T07:18:43;13.30;99.90
54684;DHT22;40582;53.100;6.686;2023-05-10T07:21:09;13.40;99.90
54684;DHT22;40582;53.100;6.686;2023-05-10T07:23:35;13.40;99.90
54684;DHT22;40582;53.100;6.686;2023-05-10T07:26:00;13.40;99.90
54684;DHT22;40582;53.100;6.686;2023-05-10T07:28:27;13.50;99.90
54684;DHT22;40582;53.100;6.686;2023-05-10T07:30:53;13.60;99.90
54684;DHT22;40582;53.100;6.686;2023-05-10T07:33:19;13.70;99.90
54684;DHT22;40582;53.100;6.686;2023-05-10T07:35:44;13.90;99.90
54684;DHT22;40582;53.100;6.686;2023-05-10T07:38:10;14.10;99.90
54684;DHT22;40582;53.100;6.686;2023-05-10T07:40:39;14.30;99.90
54684;DHT22;40582;53.100;6.686;2023-05-10T07:43:05;14.50;99.90
54684;DHT22;40582;53.100;6.686;2023-05-10T07:45:31;14.70;99.90
54684;DHT22;40582;53.100;6.686;2023-05-10T07:47:57;14.90;99.90
54684;DHT22;40582;53.100;6.686;2023-05-10T07:50:22;14.90;99.90
54684;DHT22;40582;53.100;6.686;2023-05-10T07:52:48;15.00;99.90
54684;DHT22;40582;53.100;6.686;2023-05-10T07:55:14;15.00;99.90
54684;DHT22;40582;53.100;6.686;2023-05-10T07:57:39;14.90;99.90
54684;DHT22;40582;53.100;6.686;2023-05-10T08:00:06;14.90;99.90
54684;DHT22;40582;53.100;6.686;2023-05-10T08:02:34;14.80;99.90
54684;DHT22;40582;53.100;6.686;2023-05-10T08:05:00;14.80;99.90
54684;DHT22;40582;53.100;6.686;2023-05-10T08:07:26;14.70;99.90
54684;DHT22;40582;53.100;6.686;2023-05-10T08:09:51;14.70;99.90
54684;DHT22;40582;53.100;6.686;2023-05-10T08:12:17;14.60;99.90
54684;DHT22;40582;53.100;6.686;2023-05-10T08:14:43;14.50;99.90
54684;DHT22;40582;53.100;6.686;2023-05-10T08:17:08;14.50;99.90
54684;DHT22;40582;53.100;6.686;2023-05-10T08:19:34;14.40;99.90
54684;DHT22;40582;53.100;6.686;2023-05-10T08:22:00;14.30;99.90
54684;DHT22;40582;53.100;6.686;2023-05-10T08:24:26;14.30;99.90
54684;DHT22;40582;53.100;6.686;2023-05-10T08:26:51;14.20;99.90
54684;DHT22;40582;53.100;6.686;2023-05-10T08:29:17;14.20;99.90
54684;DHT22;40582;53.100;6.686;2023-05-10T08:31:43;14.20;99.90
54684;DHT22;40582;53.100;6.686;2023-05-10T08:34:08;14.20;99.90
54684;DHT22;40582;53.100;6.686;2023-05-10T08:36:34;14.20;99.90
54684;DHT22;40582;53.100;6.686;2023-05-10T08:39:00;14.20;99.90
54684;DHT22;40582;53.100;6.686;2023-05-10T08:41:26;14.20;99.90
54684;DHT22;40582;53.100;6.686;2023-05-10T08:43:53;14.20;99.90
54684;DHT22;40582;53.100;6.686;2023-05-10T08:46:20;14.20;99.90
54684;DHT22;40582;53.100;6.686;2023-05-10T08:48:47;14.20;99.90
54684;DHT22;40582;53.100;6.686;2023-05-10T08:51:16;14.20;99.90
54684;DHT22;40582;53.100;6.686;2023-05-10T08:53:43;14.20;99.90
54684;DHT22;40582;53.100;6.686;2023-05-10T08:56:09;14.20;99.90
54684;DHT22;40582;53.100;6.686;2023-05-10T08:58:36;14.20;99.90
54684;DHT22;40582;53.100;6.686;2023-05-10T09:01:03;14.20;99.90
54684;DHT22;40582;53.100;6.686;2023-05-10T09:03:30;14.10;99.90
54684;DHT22;40582;53.100;6.686;2023-05-10T09:05:56;14.10;99.90
54684;DHT22;40582;53.100;6.686;2023-05-10T09:08:26;14.40;99.90
54684;DHT22;40582;53.100;6.686;2023-05-10T09:10:52;14.70;99.90
54684;DHT22;40582;53.100;6.686;2023-05-10T09:13:18;14.90;99.90
54684;DHT22;40582;53.100;6.686;2023-05-10T09:15:45;14.80;99.90
54684;DHT22;40582;53.100;6.686;2023-05-10T09:18:11;14.80;99.90
54684;DHT22;40582;53.100;6.686;2023-05-10T09:20:37;14.70;99.90
54684;DHT22;40582;53.100;6.686;2023-05-10T09:23:02;14.70;99.90
54684;DHT22;40582;53.100;6.686;2023-05-10T09:25:28;14.60;99.90
54684;DHT22;40582;53.100;6.686;2023-05-10T09:27:54;14.60;99.90
54684;DHT22;40582;53.100;6.686;2023-05-10T09:30:30;14.60;99.90
54684;DHT22;40582;53.100;6.686;2023-05-10T09:32:58;14.70;99.90
54684;DHT22;40582;53.100;6.686;2023-05-10T09:35:28;14.70;99.90
54684;DHT22;40582;53.100;6.686;2023-05-10T09:37:56;14.60;99.90
54684;DHT22;40582;53.100;6.686;2023-05-10T09:40:24;14.60;99.90
54684;DHT22;40582;53.100;6.686;2023-05-10T09:42:57;14.60;99.90
54684;DHT22;40582;53.100;6.686;2023-05-10T09:45:25;14.60;99.90
54684;DHT22;40582;53.100;6.686;2023-05-10T09:47:52;14.60;99.90
54684;DHT22;40582;53.100;6.686;2023-05-10T09:50:19;14.70;99.90
54684;DHT22;40582;53.100;6.686;2023-05-10T09:52:50;14.70;99.90
54684;DHT22;40582;53.100;6.686;2023-05-10T09:55:18;14.60;99.90
54684;DHT22;40582;53.100;6.686;2023-05-10T09:57:44;14.50;99.90
54684;DHT22;40582;53.100;6.686;2023-05-10T10:00:10;14.70;99.90
54684;DHT22;40582;53.100;6.686;2023-05-10T10:02:35;14.90;99.90
54684;DHT22;40582;53.100;6.686;2023-05-10T10:05:02;15.20;99.90
54684;DHT22;40582;53.100;6.686;2023-05-10T10:07:31;15.40;99.90
54684;DHT22;40582;53.100;6.686;2023-05-10T10:09:58;15.70;99.90
54684;DHT22;40582;53.100;6.686;2023-05-10T10:12:25;15.80;99.90
54684;DHT22;40582;53.100;6.686;2023-05-10T10:14:51;15.90;99.90
54684;DHT22;40582;53.100;6.686;2023-05-10T10:17:17;15.90;99.90
54684;DHT22;40582;53.100;6.686;2023-05-10T10:19:43;16.00;99.90
54684;DHT22;40582;53.100;6.686;2023-05-10T10:22:10;16.10;99.90
54684;DHT22;40582;53.100;6.686;2023-05-10T10:24:38;16.10;99.90
54684;DHT22;40582;53.100;6.686;2023-05-10T10:27:24;16.00;99.90
54684;DHT22;40582;53.100;6.686;2023-05-10T10:30:12;15.80;99.90
54684;DHT22;40582;53.100;6.686;2023-05-10T10:33:11;15.70;99.90
54684;DHT22;40582;53.100;6.686;2023-05-10T10:35:39;15.60;99.90
54684;DHT22;40582;53.100;6.686;2023-05-10T10:38:08;15.40;99.90
54684;DHT22;40582;53.100;6.686;2023-05-10T10:40:34;15.40;99.90
54684;DHT22;40582;53.100;6.686;2023-05-10T10:43:23;15.40;99.90
54684;DHT22;40582;53.100;6.686;2023-05-10T10:48:37;15.90;99.90
54684;DHT22;40582;53.100;6.686;2023-05-10T10:51:03;16.20;99.90
54684;DHT22;40582;53.100;6.686;2023-05-10T10:53:29;16.20;99.90
54684;DHT22;40582;53.100;6.686;2023-05-10T10:56:09;16.20;99.90
54684;DHT22;40582;53.100;6.686;2023-05-10T10:58:39;16.20;99.90
54684;DHT22;40582;53.100;6.686;2023-05-10T11:01:12;16.00;99.90
54684;DHT22;40582;53.100;6.686;2023-05-10T11:03:38;15.80;99.90
54684;DHT22;40582;53.100;6.686;2023-05-10T11:06:04;15.70;99.90
54684;DHT22;40582;53.100;6.686;2023-05-10T11:08:34;15.60;99.90
54684;DHT22;40582;53.100;6.686;2023-05-10T11:13:33;15.50;99.90
54684;DHT22;40582;53.100;6.686;2023-05-10T11:16:18;15.50;99.90
54684;DHT22;40582;53.100;6.686;2023-05-10T11:21:23;15.70;99.90
54684;DHT22;40582;53.100;6.686;2023-05-10T11:23:50;15.90;99.90
54684;DHT22;40582;53.100;6.686;2023-05-10T11:26:17;16.00;99.90
54684;DHT22;40582;53.100;6.686;2023-05-10T11:28:43;16.10;99.90
54684;DHT22;40582;53.100;6.686;2023-05-10T11:31:10;16.20;99.90
54684;DHT22;40582;53.100;6.686;2023-05-10T11:36:18;16.10;99.90
54684;DHT22;40582;53.100;6.686;2023-05-10T11:38:44;16.10;99.90
54684;DHT22;40582;53.100;6.686;2023-05-10T11:41:10;16.00;99.90
54684;DHT22;40582;53.100;6.686;2023-05-10T11:43:38;15.80;99.90
54684;DHT22;40582;53.100;6.686;2023-05-10T11:46:09;15.70;99.90
54684;DHT22;40582;53.100;6.686;2023-05-10T11:48:36;15.60;99.90
54684;DHT22;40582;53.100;6.686;2023-05-10T11:51:02;15.60;99.90
54684;DHT22;40582;53.100;6.686;2023-05-10T11:53:32;15.50;99.90
54684;DHT22;40582;53.100;6.686;2023-05-10T11:56:07;15.50;99.90
54684;DHT22;40582;53.100;6.686;2023-05-10T11:58:34;15.50;99.90
54684;DHT22;40582;53.100;6.686;2023-05-10T12:01:00;15.50;99.90
54684;DHT22;40582;53.100;6.686;2023-05-10T12:03:30;15.50;99.90
54684;DHT22;40582;53.100;6.686;2023-05-10T12:05:57;15.60;99.90
54684;DHT22;40582;53.100;6.686;2023-05-10T12:08:25;15.60;99.90
54684;DHT22;40582;53.100;6.686;2023-05-10T12:10:52;15.60;99.90
54684;DHT22;40582;53.100;6.686;2023-05-10T12:13:19;15.70;99.90
54684;DHT22;40582;53.100;6.686;2023-05-10T12:15:46;15.70;99.90
54684;DHT22;40582;53.100;6.686;2023-05-10T12:18:13;15.80;99.90
54684;DHT22;40582;53.100;6.686;2023-05-10T12:20:39;15.90;99.90
54684;DHT22;40582;53.100;6.686;2023-05-10T12:23:08;16.00;99.90
54684;DHT22;40582;53.100;6.686;2023-05-10T12:25:34;15.90;99.90
54684;DHT22;40582;53.100;6.686;2023-05-10T12:28:03;15.90;99.90
54684;DHT22;40582;53.100;6.686;2023-05-10T12:30:32;15.90;99.90
54684;DHT22;40582;53.100;6.686;2023-05-10T12:33:08;15.80;99.90
54684;DHT22;40582;53.100;6.686;2023-05-10T12:35:49;15.90;99.90
54684;DHT22;40582;53.100;6.686;2023-05-10T12:38:29;16.00;99.90
54684;DHT22;40582;53.100;6.686;2023-05-10T12:41:01;16.10;99.90
54684;DHT22;40582;53.100;6.686;2023-05-10T12:43:28;16.10;99.90
54684;DHT22;40582;53.100;6.686;2023-05-10T12:45:53;16.20;99.90
54684;DHT22;40582;53.100;6.686;2023-05-10T12:48:20;16.20;99.90
54684;DHT22;40582;53.100;6.686;2023-05-10T12:50:46;16.40;99.90
54684;DHT22;40582;53.100;6.686;2023-05-10T12:53:13;16.60;99.90
54684;DHT22;40582;53.100;6.686;2023-05-10T12:55:39;16.80;99.90
54684;DHT22;40582;53.100;6.686;2023-05-10T12:58:05;17.00;99.90
54684;DHT22;40582;53.100;6.686;2023-05-10T13:00:30;17.10;99.90
54684;DHT22;40582;53.100;6.686;2023-05-10T13:02:56;17.10;99.90
54684;DHT22;40582;53.100;6.686;2023-05-10T13:05:22;17.00;99.90
54684;DHT22;40582;53.100;6.686;2023-05-10T13:07:47;17.00;99.90
54684;DHT22;40582;53.100;6.686;2023-05-10T13:10:13;16.80;99.90
54684;DHT22;40582;53.100;6.686;2023-05-10T13:12:39;16.80;99.90
54684;DHT22;40582;53.100;6.686;2023-05-10T13:15:05;16.80;99.90
54684;DHT22;40582;53.100;6.686;2023-05-10T13:17:32;16.80;99.90
54684;DHT22;40582;53.100;6.686;2023-05-10T13:19:57;16.80;99.90
54684;DHT22;40582;53.100;6.686;2023-05-10T13:22:23;16.70;99.90
54684;DHT22;40582;53.100;6.686;2023-05-10T13:24:49;16.60;99.90
54684;DHT22;40582;53.100;6.686;2023-05-10T13:27:14;16.50;99.90
54684;DHT22;40582;53.100;6.686;2023-05-10T13:29:40;16.50;99.90
54684;DHT22;40582;53.100;6.686;2023-05-10T13:32:06;16.60;99.90
54684;DHT22;40582;53.100;6.686;2023-05-10T13:34:32;16.60;99.90
54684;DHT22;40582;53.100;6.686;2023-05-10T13:36:57;16.60;99.90
54684;DHT22;40582;53.100;6.686;2023-05-10T13:39:23;16.60;99.90
54684;DHT22;40582;53.100;6.686;2023-05-10T13:41:49;16.70;99.90
54684;DHT22;40582;53.100;6.686;2023-05-10T13:44:15;16.80;99.90
54684;DHT22;40582;53.100;6.686;2023-05-10T13:46:41;16.90;99.90
54684;DHT22;40582;53.100;6.686;2023-05-10T13:49:08;17.00;99.90
54684;DHT22;40582;53.100;6.686;2023-05-10T13:51:35;17.10;99.90
54684;DHT22;40582;53.100;6.686;2023-05-10T13:54:01;17.20;99.90
54684;DHT22;40582;53.100;6.686;2023-05-10T13:56:27;17.20;99.90
54684;DHT22;40582;53.100;6.686;2023-05-10T13:58:53;17.20;99.90
54684;DHT22;40582;53.100;6.686;2023-05-10T14:01:19;17.20;99.90
54684;DHT22;40582;53.100;6.686;2023-05-10T14:03:45;17.10;99.90
54684;DHT22;40582;53.100;6.686;2023-05-10T14:06:10;17.00;99.90
54684;DHT22;40582;53.100;6.686;2023-05-10T14:08:36;17.00;99.90
54684;DHT22;40582;53.100;6.686;2023-05-10T14:11:02;16.90;99.90
54684;DHT22;40582;53.100;6.686;2023-05-10T14:13:27;16.90;99.90
54684;DHT22;40582;53.100;6.686;2023-05-10T14:15:54;16.80;99.90
54684;DHT22;40582;53.100;6.686;2023-05-10T14:18:20;16.60;99.90
54684;DHT22;40582;53.100;6.686;2023-05-10T14:20:46;16.50;99.90
54684;DHT22;40582;53.100;6.686;2023-05-10T14:23:12;16.40;99.90
54684;DHT22;40582;53.100;6.686;2023-05-10T14:25:41;16.30;99.90
54684;DHT22;40582;53.100;6.686;2023-05-10T14:28:07;16.20;99.90
54684;DHT22;40582;53.100;6.686;2023-05-10T14:30:33;16.20;99.90
54684;DHT22;40582;53.100;6.686;2023-05-10T14:33:01;16.10;99.90
54684;DHT22;40582;53.100;6.686;2023-05-10T14:35:27;16.20;99.90
54684;DHT22;40582;53.100;6.686;2023-05-10T14:37:53;16.30;99.90
54684;DHT22;40582;53.100;6.686;2023-05-10T14:40:19;16.40;99.90
54684;DHT22;40582;53.100;6.686;2023-05-10T14:42:44;16.40;99.90
54684;DHT22;40582;53.100;6.686;2023-05-10T14:45:10;16.40;99.90
54684;DHT22;40582;53.100;6.686;2023-05-10T14:47:37;16.40;99.90
54684;DHT22;40582;53.100;6.686;2023-05-10T14:50:03;16.40;99.90
54684;DHT22;40582;53.100;6.686;2023-05-10T14:52:29;16.50;99.90
54684;DHT22;40582;53.100;6.686;2023-05-10T14:54:54;16.50;99.90
54684;DHT22;40582;53.100;6.686;2023-05-10T14:57:20;16.50;99.90
54684;DHT22;40582;53.100;6.686;2023-05-10T14:59:46;16.60;99.90
54684;DHT22;40582;53.100;6.686;2023-05-10T15:02:11;16.60;99.90
54684;DHT22;40582;53.100;6.686;2023-05-10T15:04:37;16.70;99.90
54684;DHT22;40582;53.100;6.686;2023-05-10T15:07:03;16.70;99.90
54684;DHT22;40582;53.100;6.686;2023-05-10T15:09:29;16.70;99.90
54684;DHT22;40582;53.100;6.686;2023-05-10T15:11:55;16.80;99.90
54684;DHT22;40582;53.100;6.686;2023-05-10T15:14:22;16.80;99.90
54684;DHT22;40582;53.100;6.686;2023-05-10T15:16:47;16.80;99.90
54684;DHT22;40582;53.100;6.686;2023-05-10T15:19:13;16.70;99.90
54684;DHT22;40582;53.100;6.686;2023-05-10T15:21:39;16.70;99.90
54684;DHT22;40582;53.100;6.686;2023-05-10T15:24:07;16.60;99.90
54684;DHT22;40582;53.100;6.686;2023-05-10T15:26:33;16.60;99.90
54684;DHT22;40582;53.100;6.686;2023-05-10T15:28:58;16.60;99.90
54684;DHT22;40582;53.100;6.686;2023-05-10T15:31:24;16.50;99.90
54684;DHT22;40582;53.100;6.686;2023-05-10T15:33:50;16.40;99.90
54684;DHT22;40582;53.100;6.686;2023-05-10T15:36:16;16.30;99.90
54684;DHT22;40582;53.100;6.686;2023-05-10T15:38:43;16.20;99.90
54684;DHT22;40582;53.100;6.686;2023-05-10T15:41:09;16.10;99.90
54684;DHT22;40582;53.100;6.686;2023-05-10T15:43:35;16.00;99.90
54684;DHT22;40582;53.100;6.686;2023-05-10T15:46:01;15.90;99.90
54684;DHT22;40582;53.100;6.686;2023-05-10T15:48:27;15.90;99.90
54684;DHT22;40582;53.100;6.686;2023-05-10T15:50:52;15.80;99.90
54684;DHT22;40582;53.100;6.686;2023-05-10T15:53:18;15.80;99.90
54684;DHT22;40582;53.100;6.686;2023-05-10T15:55:44;15.80;99.90
54684;DHT22;40582;53.100;6.686;2023-05-10T15:58:09;15.70;99.90